sensor_id;sensor_type;location;lat;lon;timestamp;temperature;humidity
41168;DHT22;26906;45.658;9.272;2023-02-01T09:11:16;9.00;99.90
41168;DHT22;26906;45.658;9.272;2023-02-01T09:13:42;9.10;99.90
41168;DHT22;26906;45.658;9.272;2023-02-01T09:16:08;9.30;99.90
41168;DHT22;26906;45.658;9.272;2023-02-01T09:18:34;9.30;99.90
41168;DHT22;26906;45.658;9.272;2023-02-01T09:21:04;9.50;99.90
41168;DHT22;26906;45.658;9.272;2023-02-01T09:23:30;9.70;99.90
41168;DHT22;26906;45.658;9.272;2023-02-01T09:26:00;9.80;99.90
41168;DHT22;26906;45.658;9.272;2023-02-01T09:28:25;10.10;99.90
41168;DHT22;26906;45.658;9.272;2023-02-01T09:30:58;10.20;99.90
41168;DHT22;26906;45.658;9.272;2023-02-01T09:33:26;10.40;99.90
41168;DHT22;26906;45.658;9.272;2023-02-01T09:36:00;10.60;99.90
41168;DHT22;26906;45.658;9.272;2023-02-01T09:38:26;10.70;99.90
41168;DHT22;26906;45.658;9.272;2023-02-01T09:40:53;10.90;99.90
41168;DHT22;26906;45.658;9.272;2023-02-01T09:48:38;11.20;99.90
41168;DHT22;26906;45.658;9.272;2023-02-01T09:51:16;11.30;99.90
41168;DHT22;26906;45.658;9.272;2023-02-01T09:53:48;11.50;99.90
41168;DHT22;26906;45.658;9.272;2023-02-01T09:56:39;11.70;99.90
41168;DHT22;26906;45.658;9.272;2023-02-01T10:01:40;11.90;99.90
41168;DHT22;26906;45.658;9.272;2023-02-01T10:04:11;12.10;99.90
41168;DHT22;26906;45.658;9.272;2023-02-01T10:06:54;12.20;99.90
41168;DHT22;26906;45.658;9.272;2023-02-01T10:10:05;12.30;99.90
41168;DHT22;26906;45.658;9.272;2023-02-01T10:13:03;12.50;99.90
41168;DHT22;26906;45.658;9.272;2023-02-01T10:18:15;12.90;99.90
41168;DHT22;26906;45.658;9.272;2023-02-01T10:21:10;12.90;99.90
41168;DHT22;26906;45.658;9.272;2023-02-01T10:26:20;13.20;99.90
41168;DHT22;26906;45.658;9.272;2023-02-01T10:31:17;13.50;99.90
41168;DHT22;26906;45.658;9.272;2023-02-01T10:33:55;13.70;99.90
41168;DHT22;26906;45.658;9.272;2023-02-01T10:36:23;13.70;99.90
41168;DHT22;26906;45.658;9.272;2023-02-01T10:38:52;13.80;99.90
41168;DHT22;26906;45.658;9.272;2023-02-01T10:41:20;13.80;99.90
41168;DHT22;26906;45.658;9.272;2023-02-01T10:43:50;13.80;99.90
41168;DHT22;26906;45.658;9.272;2023-02-01T10:46:18;13.80;99.90
41168;DHT22;26906;45.658;9.272;2023-02-01T10:48:45;13.70;99.90
41168;DHT22;26906;45.658;9.272;2023-02-01T10:51:19;13.90;99.90
41168;DHT22;26906;45.658;9.272;2023-02-01T10:54:21;14.00;99.90
41168;DHT22;26906;45.658;9.272;2023-02-01T10:56:48;14.10;99.90
41168;DHT22;26906;45.658;9.272;2023-02-01T10:59:20;14.20;99.90
41168;DHT22;26906;45.658;9.272;2023-02-01T11:01:49;14.30;99.90
41168;DHT22;26906;45.658;9.272;2023-02-01T11:04:19;14.40;99.90
41168;DHT22;26906;45.658;9.272;2023-02-01T11:06:47;14.50;99.90
41168;DHT22;26906;45.658;9.272;2023-02-01T11:09:24;14.60;99.90
41168;DHT22;26906;45.658;9.272;2023-02-01T11:14:36;14.80;99.90
41168;DHT22;26906;45.658;9.272;2023-02-01T11:17:20;14.60;99.90
41168;DHT22;26906;45.658;9.272;2023-02-01T11:20:03;14.80;99.90
41168;DHT22;26906;45.658;9.272;2023-02-01T11:22:31;14.70;99.90
41168;DHT22;26906;45.658;9.272;2023-02-01T11:24:57;14.80;99.90
41168;DHT22;26906;45.658;9.272;2023-02-01T11:27:24;15.00;99.90
41168;DHT22;26906;45.658;9.272;2023-02-01T11:29:54;15.10;99.90
41168;DHT22;26906;45.658;9.272;2023-02-01T11:32:23;15.20;99.90
41168;DHT22;26906;45.658;9.272;2023-02-01T11:34:54;15.10;99.90
41168;DHT22;26906;45.658;9.272;2023-02-01T11:37:30;15.20;99.90
41168;DHT22;26906;45.658;9.272;2023-02-01T11:40:27;15.20;99.90
41168;DHT22;26906;45.658;9.272;2023-02-01T11:42:59;15.20;99.90
41168;DHT22;26906;45.658;9.272;2023-02-01T11:45:31;15.40;99.90
41168;DHT22;26906;45.658;9.272;2023-02-01T11:47:58;15.50;99.90
41168;DHT22;26906;45.658;9.272;2023-02-01T11:50:45;15.50;99.90
41168;DHT22;26906;45.658;9.272;2023-02-01T11:55:56;15.50;99.90
41168;DHT22;26906;45.658;9.272;2023-02-01T12:06:54;15.70;99.90
41168;DHT22;26906;45.658;9.272;2023-02-01T12:12:37;15.80;99.90
41168;DHT22;26906;45.658;9.272;2023-02-01T12:17:48;16.00;99.90
41168;DHT22;26906;45.658;9.272;2023-02-01T12:26:37;16.00;99.90
41168;DHT22;26906;45.658;9.272;2023-02-01T12:32:29;15.90;99.90
41168;DHT22;26906;45.658;9.272;2023-02-01T12:35:13;16.00;99.90
41168;DHT22;26906;45.658;9.272;2023-02-01T12:43:49;16.30;99.90
41168;DHT22;26906;45.658;9.272;2023-02-01T12:46:23;16.30;99.90
41168;DHT22;26906;45.658;9.272;2023-02-01T12:49:34;16.30;99.90
41168;DHT22;26906;45.658;9.272;2023-02-01T12:51:58;16.30;99.90
41168;DHT22;26906;45.658;9.272;2023-02-01T12:54:38;16.30;99.90
41168;DHT22;26906;45.658;9.272;2023-02-01T12:57:12;16.30;99.90
41168;DHT22;26906;45.658;9.272;2023-02-01T13:02:25;16.30;99.90
41168;DHT22;26906;45.658;9.272;2023-02-01T13:07:41;16.30;99.90
41168;DHT22;26906;45.658;9.272;2023-02-01T13:10:21;16.40;99.90
41168;DHT22;26906;45.658;9.272;2023-02-01T13:13:09;16.50;99.90
41168;DHT22;26906;45.658;9.272;2023-02-01T13:18:35;16.50;99.90
41168;DHT22;26906;45.658;9.272;2023-02-01T13:21:03;16.60;99.90
41168;DHT22;26906;45.658;9.272;2023-02-01T13:23:33;16.50;99.90
41168;DHT22;26906;45.658;9.272;2023-02-01T13:26:00;16.50;99.90
41168;DHT22;26906;45.658;9.272;2023-02-01T13:28:40;16.50;99.90
41168;DHT22;26906;45.658;9.272;2023-02-01T13:32:25;16.60;99.90
41168;DHT22;26906;45.658;9.272;2023-02-01T13:45:23;16.50;99.90
41168;DHT22;26906;45.658;9.272;2023-02-01T13:47:52;16.50;99.90
41168;DHT22;26906;45.658;9.272;2023-02-01T13:50:36;16.50;99.90
41168;DHT22;26906;45.658;9.272;2023-02-01T13:55:45;16.50;99.90
41168;DHT22;26906;45.658;9.272;2023-02-01T13:58:15;16.70;99.90
41168;DHT22;26906;45.658;9.272;2023-02-01T14:00:43;16.60;99.90
41168;DHT22;26906;45.658;9.272;2023-02-01T14:03:12;16.60;99.90
41168;DHT22;26906;45.658;9.272;2023-02-01T14:10:58;16.60;99.90
41168;DHT22;26906;45.658;9.272;2023-02-01T14:31:52;16.30;99.90
41168;DHT22;26906;45.658;9.272;2023-02-01T14:36:58;16.30;99.90
41168;DHT22;26906;45.658;9.272;2023-02-01T14:42:28;16.20;99.90
41168;DHT22;26906;45.658;9.272;2023-02-01T14:47:47;16.00;99.90
41168;DHT22;26906;45.658;9.272;2023-02-01T14:50:31;15.90;99.90
41168;DHT22;26906;45.658;9.272;2023-02-01T15:11:56;15.30;99.90
41168;DHT22;26906;45.658;9.272;2023-02-01T15:14:22;15.30;99.90
41168;DHT22;26906;45.658;9.272;2023-02-01T15:16:47;15.20;99.90
41168;DHT22;26906;45.658;9.272;2023-02-01T15:19:20;15.10;99.90
41168;DHT22;26906;45.658;9.272;2023-02-01T15:21:52;15.10;99.90
41168;DHT22;26906;45.658;9.272;2023-02-01T15:24:29;15.00;99.90
41168;DHT22;26906;45.658;9.272;2023-02-01T15:27:02;15.00;99.90
41168;DHT22;26906;45.658;9.272;2023-02-01T15:29:29;14.90;99.90
41168;DHT22;26906;45.658;9.272;2023-02-01T15:31:58;14.80;99.90
41168;DHT22;26906;45.658;9.272;2023-02-01T15:34:45;14.70;99.90
41168;DHT22;26906;45.658;9.272;2023-02-01T15:37:13;14.60;99.90
41168;DHT22;26906;45.658;9.272;2023-02-01T15:42:54;14.30;99.90
41168;DHT22;26906;45.658;9.272;2023-02-01T15:45:25;14.30;99.90
41168;DHT22;26906;45.658;9.272;2023-02-01T15:47:53;14.20;99.90
41168;DHT22;26906;45.658;9.272;2023-02-01T15:50:20;14.20;99.90
41168;DHT22;26906;45.658;9.272;2023-02-01T15:52:51;14.10;99.90
41168;DHT22;26906;45.658;9.272;2023-02-01T15:55:22;14.10;99.90
41168;DHT22;26906;45.658;9.272;2023-02-01T15:57:50;14.00;99.90
41168;DHT22;26906;45.658;9.272;2023-02-01T16:02:57;13.80;99.90
41168;DHT22;26906;45.658;9.272;2023-02-01T16:05:35;13.80;99.90
41168;DHT22;26906;45.658;9.272;2023-02-01T16:08:17;13.70;99.90
41168;DHT22;26906;45.658;9.272;2023-02-01T16:10:48;13.60;99.90
41168;DHT22;26906;45.658;9.272;2023-02-01T16:13:16;13.50;99.90
41168;DHT22;26906;45.658;9.272;2023-02-01T16:15:42;13.40;99.90
41168;DHT22;26906;45.658;9.272;2023-02-01T16:18:08;13.40;99.90
41168;DHT22;26906;45.658;9.272;2023-02-01T16:20:36;13.30;99.90
41168;DHT22;26906;45.658;9.272;2023-02-01T16:23:03;13.20;99.90
41168;DHT22;26906;45.658;9.272;2023-02-01T16:25:30;13.10;99.90
41168;DHT22;26906;45.658;9.272;2023-02-01T16:27:55;13.10;99.90
41168;DHT22;26906;45.658;9.272;2023-02-01T16:30:21;13.00;99.90
41168;DHT22;26906;45.658;9.272;2023-02-01T16:32:52;12.90;99.90
41168;DHT22;26906;45.658;9.272;2023-02-01T16:38:03;12.70;99.90
41168;DHT22;26906;45.658;9.272;2023-02-01T16:40:34;12.50;99.90
41168;DHT22;26906;45.658;9.272;2023-02-01T16:43:00;12.40;99.90
41168;DHT22;26906;45.658;9.272;2023-02-01T16:45:26;12.40;99.90
41168;DHT22;26906;45.658;9.272;2023-02-01T16:47:55;12.30;99.90
41168;DHT22;26906;45.658;9.272;2023-02-01T16:50:24;12.30;99.90
41168;DHT22;26906;45.658;9.272;2023-02-01T16:52:52;12.20;99.90
41168;DHT22;26906;45.658;9.272;2023-02-01T16:55:20;12.20;99.90
41168;DHT22;26906;45.658;9.272;2023-02-01T16:57:47;12.20;99.90
41168;DHT22;26906;45.658;9.272;2023-02-01T17:00:13;12.10;99.90
41168;DHT22;26906;45.658;9.272;2023-02-01T17:02:43;12.10;99.90
41168;DHT22;26906;45.658;9.272;2023-02-01T17:05:13;12.00;99.90
41168;DHT22;26906;45.658;9.272;2023-02-01T17:07:40;11.90;99.90
41168;DHT22;26906;45.658;9.272;2023-02-01T17:10:20;11.90;99.90
41168;DHT22;26906;45.658;9.272;2023-02-01T17:12:47;11.90;99.90
41168;DHT22;26906;45.658;9.272;2023-02-01T17:15:15;11.80;99.90
41168;DHT22;26906;45.658;9.272;2023-02-01T17:17:41;11.80;99.90
41168;DHT22;26906;45.658;9.272;2023-02-01T17:20:17;11.70;99.90
41168;DHT22;26906;45.658;9.272;2023-02-01T17:22:44;11.60;99.90
41168;DHT22;26906;45.658;9.272;2023-02-01T17:25:17;11.60;99.90
41168;DHT22;26906;45.658;9.272;2023-02-01T17:27:44;11.50;99.90
41168;DHT22;26906;45.658;9.272;2023-02-01T17:30:11;11.50;99.90
41168;DHT22;26906;45.658;9.272;2023-02-01T17:32:37;11.50;99.90
41168;DHT22;26906;45.658;9.272;2023-02-01T17:35:05;11.50;99.90
41168;DHT22;26906;45.658;9.272;2023-02-01T17:37:33;11.40;99.90
41168;DHT22;26906;45.658;9.272;2023-02-01T17:40:02;11.30;99.90
41168;DHT22;26906;45.658;9.272;2023-02-01T17:42:29;11.30;99.90
41168;DHT22;26906;45.658;9.272;2023-02-01T17:45:00;11.30;99.90
41168;DHT22;26906;45.658;9.272;2023-02-01T17:47:27;11.20;99.90
41168;DHT22;26906;45.658;9.272;2023-02-01T17:49:54;11.20;99.90
41168;DHT22;26906;45.658;9.272;2023-02-01T17:52:23;11.20;99.90
41168;DHT22;26906;45.658;9.272;2023-02-01T17:54:50;11.00;99.90
41168;DHT22;26906;45.658;9.272;2023-02-01T17:57:18;11.00;99.90
41168;DHT22;26906;45.658;9.272;2023-02-01T17:59:44;11.10;99.90
41168;DHT22;26906;45.658;9.272;2023-02-01T18:02:22;11.00;99.90
41168;DHT22;26906;45.658;9.272;2023-02-01T18:04:49;11.00;99.90
41168;DHT22;26906;45.658;9.272;2023-02-01T18:07:15;11.10;99.90
41168;DHT22;26906;45.658;9.272;2023-02-01T18:09:41;11.00;99.90
41168;DHT22;26906;45.658;9.272;2023-02-01T18:12:18;11.00;99.90
41168;DHT22;26906;45.658;9.272;2023-02-01T18:14:44;10.90;99.90
41168;DHT22;26906;45.658;9.272;2023-02-01T18:17:10;10.90;99.90
41168;DHT22;26906;45.658;9.272;2023-02-01T18:19:37;10.80;99.90
41168;DHT22;26906;45.658;9.272;2023-02-01T18:22:03;10.80;99.90
41168;DHT22;26906;45.658;9.272;2023-02-01T18:24:30;10.80;99.90
41168;DHT22;26906;45.658;9.272;2023-02-01T18:26:59;10.80;99.90
41168;DHT22;26906;45.658;9.272;2023-02-01T18:29:24;10.70;99.90
41168;DHT22;26906;45.658;9.272;2023-02-01T18:31:50;10.60;99.90
41168;DHT22;26906;45.658;9.272;2023-02-01T18:34:16;10.70;99.90
41168;DHT22;26906;45.658;9.272;2023-02-01T18:36:48;10.70;99.90
41168;DHT22;26906;45.658;9.272;2023-02-01T18:39:14;10.70;99.90
41168;DHT22;26906;45.658;9.272;2023-02-01T18:41:40;10.70;99.90
41168;DHT22;26906;45.658;9.272;2023-02-01T18:44:09;10.60;99.90
41168;DHT22;26906;45.658;9.272;2023-02-01T18:46:37;10.50;99.90
41168;DHT22;26906;45.658;9.272;2023-02-01T18:49:03;10.50;99.90
41168;DHT22;26906;45.658;9.272;2023-02-01T18:51:29;10.50;99.90
41168;DHT22;26906;45.658;9.272;2023-02-01T18:53:55;10.40;99.90
41168;DHT22;26906;45.658;9.272;2023-02-01T18:56:23;10.40;99.90
41168;DHT22;26906;45.658;9.272;2023-02-01T18:58:49;10.40;99.90
41168;DHT22;26906;45.658;9.272;2023-02-01T19:01:20;10.40;99.90
41168;DHT22;26906;45.658;9.272;2023-02-01T19:03:50;10.40;99.90
41168;DHT22;26906;45.658;9.272;2023-02-01T19:06:16;10.40;99.90
41168;DHT22;26906;45.658;9.272;2023-02-01T19:08:44;10.40;99.90
41168;DHT22;26906;45.658;9.272;2023-02-01T19:11:11;10.40;99.90
41168;DHT22;26906;45.658;9.272;2023-02-01T19:13:38;10.30;99.90
41168;DHT22;26906;45.658;9.272;2023-02-01T19:16:09;10.20;99.90
41168;DHT22;26906;45.658;9.272;2023-02-01T19:18:35;10.20;99.90
41168;DHT22;26906;45.658;9.272;2023-02-01T19:21:10;10.20;99.90
41168;DHT22;26906;45.658;9.272;2023-02-01T19:23:39;10.30;99.90
41168;DHT22;26906;45.658;9.272;2023-02-01T19:26:10;10.10;99.90
41168;DHT22;26906;45.658;9.272;2023-02-01T19:28:36;10.00;99.90
41168;DHT22;26906;45.658;9.272;2023-02-01T19:31:06;10.00;99.90
41168;DHT22;26906;45.658;9.272;2023-02-01T19:33:32;10.00;99.90
41168;DHT22;26906;45.658;9.272;2023-02-01T19:35:58;10.10;99.90
41168;DHT22;26906;45.658;9.272;2023-02-01T19:38:24;10.00;99.90
41168;DHT22;26906;45.658;9.272;2023-02-01T19:40:50;10.10;99.90
41168;DHT22;26906;45.658;9.272;2023-02-01T19:43:16;10.10;99.90
41168;DHT22;26906;45.658;9.272;2023-02-01T19:45:41;10.10;99.90
41168;DHT22;26906;45.658;9.272;2023-02-01T19:48:08;10.10;99.90
41168;DHT22;26906;45.658;9.272;2023-02-01T19:50:38;10.10;99.90
41168;DHT22;26906;45.658;9.272;2023-02-01T19:53:07;10.10;99.90
41168;DHT22;26906;45.658;9.272;2023-02-01T19:55:33;10.10;99.90
41168;DHT22;26906;45.658;9.272;2023-02-01T19:57:58;10.10;99.90
41168;DHT22;26906;45.658;9.272;2023-02-01T20:00:26;10.10;99.90
41168;DHT22;26906;45.658;9.272;2023-02-01T20:02:53;10.00;99.90
41168;DHT22;26906;45.658;9.272;2023-02-01T20:05:19;10.00;99.90
41168;DHT22;26906;45.658;9.272;2023-02-01T20:07:47;9.80;99.90
41168;DHT22;26906;45.658;9.272;2023-02-01T20:10:13;9.70;99.90
41168;DHT22;26906;45.658;9.272;2023-02-01T20:12:38;9.70;99.90
41168;DHT22;26906;45.658;9.272;2023-02-01T20:15:06;9.70;99.90
41168;DHT22;26906;45.658;9.272;2023-02-01T20:17:33;9.70;99.90
41168;DHT22;26906;45.658;9.272;2023-02-01T20:20:01;9.60;99.90
41168;DHT22;26906;45.658;9.272;2023-02-01T20:22:26;9.70;99.90
41168;DHT22;26906;45.658;9.272;2023-02-01T20:24:52;9.60;99.90
41168;DHT22;26906;45.658;9.272;2023-02-01T20:27:18;9.60;99.90
41168;DHT22;26906;45.658;9.272;2023-02-01T20:29:43;9.60;99.90
41168;DHT22;26906;45.658;9.272;2023-02-01T20:32:09;9.80;99.90
41168;DHT22;26906;45.658;9.272;2023-02-01T20:34:36;9.70;99.90
41168;DHT22;26906;45.658;9.272;2023-02-01T20:37:01;9.40;99.90
41168;DHT22;26906;45.658;9.272;2023-02-01T20:39:27;9.20;99.90
41168;DHT22;26906;45.658;9.272;2023-02-01T20:41:53;9.30;99.90
41168;DHT22;26906;45.658;9.272;2023-02-01T20:44:19;9.10;99.90
41168;DHT22;26906;45.658;9.272;2023-02-01T20:46:45;9.10;99.90
41168;DHT22;26906;45.658;9.272;2023-02-01T20:49:11;9.00;99.90
41168;DHT22;26906;45.658;9.272;2023-02-01T20:51:37;9.00;99.90
41168;DHT22;26906;45.658;9.272;2023-02-01T20:54:03;9.30;99.90
41168;DHT22;26906;45.658;9.272;2023-02-01T20:56:28;9.00;99.90
41168;DHT22;26906;45.658;9.272;2023-02-01T20:58:57;8.90;99.90
41168;DHT22;26906;45.658;9.272;2023-02-01T21:01:29;8.80;99.90
41168;DHT22;26906;45.658;9.272;2023-02-01T21:03:55;8.70;99.90
41168;DHT22;26906;45.658;9.272;2023-02-01T21:06:20;9.10;99.90
41168;DHT22;26906;45.658;9.272;2023-02-01T21:08:46;8.80;99.90
41168;DHT22;26906;45.658;9.272;2023-02-01T21:11:13;8.60;99.90
